Staunton Park, Virginia
Current Conditions -  °F | °C
As of 11:15 AM on Thursday 27 Nov 2014 (Local Time) from KW13 Reporting Station
Overcast Overcast  
Wind Chill: 30°   Ceiling: 4100
Heat Index: 35°   Visibility: 10mi
Dew Point: 33°   Wind: 6mph
Humidity: 91%   Direction: 330°NNW
Pressure: 30.03"   Gusts: NA
Location:  38.1221°N, 79.0825°W
Report Text: KW13 271615Z AUTO 33005KT 10SM SCT013 OVC041 02/01 A3003 RMK AO1 T00180005
Loading
Personal Weather Stations






























Interactive Weather Map New forecast layout! Learn more

10-Day Weather Forecast

Advertisements
Track Severe Weather on mobile